JES3234 SABE-SANT
Flight info
| Callsign | JES3234 |
|---|---|
| Flight time | 1h 45m |
| Altitude | 36000 |
| Route | ERE UT680 ANGEN ANGEN1M |
| Aircraft | A320/M-SDE3FGHIRWY/LB1 |
Departure
| Time | 2026-04-25 04:29 |
|---|---|
| Airport | Aeroparque Jorge Newbery (SABE) |
Arrival
| Time | 2026-04-25 06:14 |
|---|---|
| Airport | Teniente Benjamín Matienzo International Airport (SANT) |
| Time | Latitude | Longitude | Altitude | Speed | Heading |
|---|---|---|---|---|---|
| 2026-04-25 03:54 | -34.55737 | -58.41365 | 26 ft | 0 kts | 33° |
| 2026-04-25 04:21 | -34.55738 | -58.41365 | 25 ft | 2 kts | 33° |
| 2026-04-25 04:21 | -34.55751 | -58.41376 | 30 ft | 4 kts | 32° |
| 2026-04-25 04:22 | -34.55779 | -58.41387 | 27 ft | 4 kts | 309° |
| 2026-04-25 04:22 | -34.55794 | -58.41363 | 29 ft | 4 kts | 304° |
| 2026-04-25 04:22 | -34.55800 | -58.41353 | 28 ft | 0 kts | 304° |
| 2026-04-25 04:25 | -34.55792 | -58.41365 | 28 ft | 9 kts | 304° |
| 2026-04-25 04:25 | -34.55734 | -58.41475 | 26 ft | 17 kts | 298° |
| 2026-04-25 04:25 | -34.55772 | -58.41589 | 29 ft | 17 kts | 215° |
| 2026-04-25 04:25 | -34.55766 | -58.41674 | 27 ft | 10 kts | 294° |
| 2026-04-25 04:26 | -34.55729 | -58.41770 | 29 ft | 14 kts | 300° |
| 2026-04-25 04:26 | -34.55671 | -58.41873 | 28 ft | 16 kts | 304° |
| 2026-04-25 04:26 | -34.55604 | -58.41991 | 29 ft | 18 kts | 304° |
| 2026-04-25 04:26 | -34.55526 | -58.42123 | 28 ft | 20 kts | 307° |
| 2026-04-25 04:27 | -34.55436 | -58.42268 | 28 ft | 23 kts | 307° |
| 2026-04-25 04:27 | -34.55364 | -58.42437 | 25 ft | 21 kts | 268° |
| 2026-04-25 04:27 | -34.55410 | -58.42508 | 29 ft | 10 kts | 156° |
| 2026-04-25 04:27 | -34.55442 | -58.42442 | 28 ft | 6 kts | 129° |
| 2026-04-25 04:28 | -34.55446 | -58.42437 | 26 ft | 0 kts | 125° |
| 2026-04-25 04:28 | -34.55446 | -58.42436 | 26 ft | 2 kts | 125° |
| 2026-04-25 04:28 | -34.55601 | -58.42161 | 27 ft | 75 kts | 124° |
| 2026-04-25 04:28 | -34.56000 | -58.41444 | 30 ft | 127 kts | 124° |
| 2026-04-25 04:29 | -34.56567 | -58.40441 | 219 ft | 149 kts | 124° |
| 2026-04-25 04:29 | -34.57111 | -58.39384 | 780 ft | 147 kts | 120° |
| 2026-04-25 04:29 | -34.57661 | -58.38287 | 1177 ft | 157 kts | 114° |
| 2026-04-25 04:29 | -34.58040 | -58.37026 | 1660 ft | 161 kts | 101° |
| 2026-04-25 04:30 | -34.58179 | -58.35590 | 1898 ft | 181 kts | 86° |
| 2026-04-25 04:30 | -34.57976 | -58.33995 | 2077 ft | 203 kts | 70° |
| 2026-04-25 04:30 | -34.57326 | -58.32374 | 2315 ft | 226 kts | 52° |
| 2026-04-25 04:30 | -34.56159 | -58.30962 | 2707 ft | 249 kts | 32° |
| 2026-04-25 04:31 | -34.54646 | -58.29840 | 3428 ft | 259 kts | 30° |
| 2026-04-25 04:31 | -34.53091 | -58.28688 | 4274 ft | 265 kts | 31° |
| 2026-04-25 04:31 | -34.51457 | -58.27591 | 5097 ft | 271 kts | 20° |
| 2026-04-25 04:31 | -34.49603 | -58.27121 | 5934 ft | 275 kts | 0° |
| 2026-04-25 04:32 | -34.47712 | -58.27439 | 6773 ft | 277 kts | 340° |
| 2026-04-25 04:32 | -34.46003 | -58.28520 | 7591 ft | 279 kts | 324° |
| 2026-04-25 04:32 | -34.44404 | -58.29873 | 8411 ft | 282 kts | 324° |
| 2026-04-25 04:32 | -34.42782 | -58.31238 | 9244 ft | 285 kts | 324° |
| 2026-04-25 04:33 | -34.41138 | -58.32610 | 10054 ft | 289 kts | 324° |
| 2026-04-25 04:33 | -34.39468 | -58.34000 | 10483 ft | 306 kts | 324° |
| 2026-04-25 04:33 | -34.37706 | -58.35465 | 10676 ft | 328 kts | 324° |
| 2026-04-25 04:33 | -34.35803 | -58.37045 | 11095 ft | 340 kts | 324° |
| 2026-04-25 04:34 | -34.33839 | -58.38676 | 11763 ft | 344 kts | 324° |
| 2026-04-25 04:34 | -34.31853 | -58.40322 | 12465 ft | 347 kts | 324° |
| 2026-04-25 04:34 | -34.29845 | -58.41984 | 13168 ft | 350 kts | 324° |
| 2026-04-25 04:34 | -34.27830 | -58.43652 | 13857 ft | 353 kts | 324° |
| 2026-04-25 04:35 | -34.25800 | -58.45334 | 14480 ft | 355 kts | 324° |
| 2026-04-25 04:35 | -34.23756 | -58.47027 | 15106 ft | 357 kts | 323° |
| 2026-04-25 04:35 | -34.21720 | -58.48711 | 15723 ft | 359 kts | 323° |
| 2026-04-25 04:35 | -34.19630 | -58.50438 | 16347 ft | 360 kts | 323° |
| 2026-04-25 04:36 | -34.17583 | -58.52131 | 16966 ft | 362 kts | 322° |
| 2026-04-25 04:36 | -34.15660 | -58.54086 | 17562 ft | 361 kts | 310° |
| 2026-04-25 04:36 | -34.14214 | -58.56543 | 18178 ft | 360 kts | 296° |
| 2026-04-25 04:36 | -34.13331 | -58.59363 | 18752 ft | 360 kts | 282° |
| 2026-04-25 04:37 | -34.13063 | -58.62362 | 19327 ft | 361 kts | 269° |
| 2026-04-25 04:37 | -34.13340 | -58.65381 | 19911 ft | 363 kts | 263° |
| 2026-04-25 04:37 | -34.13690 | -58.68410 | 20497 ft | 363 kts | 264° |
| 2026-04-25 04:37 | -34.14032 | -58.71430 | 21065 ft | 364 kts | 264° |
| 2026-04-25 04:38 | -34.14340 | -58.74472 | 21611 ft | 365 kts | 269° |
| 2026-04-25 04:38 | -34.14170 | -58.77514 | 22122 ft | 364 kts | 282° |
| 2026-04-25 04:38 | -34.13382 | -58.80382 | 22629 ft | 366 kts | 295° |
| 2026-04-25 04:38 | -34.11988 | -58.82970 | 23156 ft | 371 kts | 308° |
| 2026-04-25 04:39 | -34.10058 | -58.85072 | 23651 ft | 379 kts | 321° |
| 2026-04-25 04:39 | -34.07805 | -58.86747 | 24074 ft | 382 kts | 324° |
| 2026-04-25 04:39 | -34.05529 | -58.88407 | 24508 ft | 383 kts | 324° |
| 2026-04-25 04:39 | -34.03247 | -58.90071 | 24945 ft | 383 kts | 323° |
| 2026-04-25 04:40 | -34.00964 | -58.91736 | 25373 ft | 384 kts | 323° |
| 2026-04-25 04:40 | -33.98672 | -58.93408 | 25796 ft | 385 kts | 323° |
| 2026-04-25 04:40 | -33.96376 | -58.95083 | 26211 ft | 385 kts | 323° |
| 2026-04-25 04:40 | -33.94080 | -58.96758 | 26630 ft | 386 kts | 323° |
| 2026-04-25 04:41 | -33.91784 | -58.98439 | 27050 ft | 387 kts | 323° |
| 2026-04-25 04:41 | -33.89471 | -59.00135 | 27467 ft | 388 kts | 323° |
| 2026-04-25 04:41 | -33.87166 | -59.01824 | 27886 ft | 389 kts | 323° |
| 2026-04-25 04:41 | -33.84847 | -59.03521 | 28306 ft | 390 kts | 323° |
| 2026-04-25 04:42 | -33.82525 | -59.05217 | 28717 ft | 391 kts | 323° |
| 2026-04-25 04:42 | -33.80228 | -59.06891 | 29110 ft | 392 kts | 323° |
| 2026-04-25 04:42 | -33.77862 | -59.08611 | 29501 ft | 393 kts | 323° |
| 2026-04-25 04:42 | -33.75547 | -59.10293 | 29962 ft | 392 kts | 323° |
| 2026-04-25 04:43 | -33.73221 | -59.11982 | 30478 ft | 389 kts | 323° |
| 2026-04-25 04:43 | -33.70914 | -59.13657 | 30955 ft | 387 kts | 322° |
| 2026-04-25 04:43 | -33.68617 | -59.15328 | 31408 ft | 385 kts | 322° |
| 2026-04-25 04:43 | -33.66333 | -59.16988 | 31853 ft | 383 kts | 322° |
| 2026-04-25 04:44 | -33.64047 | -59.18646 | 32305 ft | 382 kts | 322° |
| 2026-04-25 04:44 | -33.61777 | -59.20291 | 32753 ft | 380 kts | 322° |
| 2026-04-25 04:44 | -33.59516 | -59.21930 | 33201 ft | 379 kts | 321° |
| 2026-04-25 04:44 | -33.57267 | -59.23560 | 33660 ft | 377 kts | 321° |
| 2026-04-25 04:45 | -33.55021 | -59.25185 | 34106 ft | 376 kts | 321° |
| 2026-04-25 04:45 | -33.52786 | -59.26801 | 34474 ft | 375 kts | 321° |
| 2026-04-25 04:45 | -33.50552 | -59.28419 | 34813 ft | 374 kts | 321° |
| 2026-04-25 04:45 | -33.48357 | -59.30007 | 35138 ft | 373 kts | 321° |
| 2026-04-25 04:46 | -33.46129 | -59.31620 | 35448 ft | 373 kts | 320° |
| 2026-04-25 04:46 | -33.43905 | -59.33227 | 35757 ft | 373 kts | 320° |
| 2026-04-25 04:46 | -33.41683 | -59.34831 | 35989 ft | 373 kts | 320° |
| 2026-04-25 04:47 | -33.37195 | -59.38073 | 36046 ft | 379 kts | 320° |
| 2026-04-25 04:47 | -33.32659 | -59.41333 | 36042 ft | 381 kts | 320° |
| 2026-04-25 04:48 | -33.28123 | -59.44579 | 36042 ft | 381 kts | 320° |
| 2026-04-25 04:48 | -33.23579 | -59.47832 | 36039 ft | 380 kts | 320° |
| 2026-04-25 04:49 | -33.19074 | -59.51072 | 36043 ft | 380 kts | 320° |
| 2026-04-25 04:49 | -33.14543 | -59.54330 | 36038 ft | 380 kts | 320° |
| 2026-04-25 04:50 | -33.10004 | -59.57578 | 36035 ft | 380 kts | 320° |
| 2026-04-25 04:50 | -33.05466 | -59.60817 | 36033 ft | 380 kts | 320° |
| 2026-04-25 04:51 | -33.00930 | -59.64057 | 36038 ft | 379 kts | 320° |
| 2026-04-25 04:51 | -32.96396 | -59.67289 | 36040 ft | 379 kts | 320° |
| 2026-04-25 04:52 | -32.91891 | -59.70489 | 36043 ft | 379 kts | 320° |
| 2026-04-25 04:52 | -32.87365 | -59.73704 | 36039 ft | 378 kts | 320° |
| 2026-04-25 04:53 | -32.82843 | -59.76922 | 36034 ft | 378 kts | 320° |
| 2026-04-25 04:53 | -32.78320 | -59.80132 | 36033 ft | 378 kts | 320° |
| 2026-04-25 04:54 | -32.73802 | -59.83329 | 36034 ft | 378 kts | 320° |
| 2026-04-25 04:54 | -32.69311 | -59.86503 | 36036 ft | 378 kts | 320° |
| 2026-04-25 04:55 | -32.64805 | -59.89701 | 36041 ft | 377 kts | 320° |
| 2026-04-25 04:55 | -32.60282 | -59.92898 | 36043 ft | 377 kts | 320° |
| 2026-04-25 04:56 | -32.55770 | -59.96072 | 36046 ft | 377 kts | 320° |
| 2026-04-25 04:56 | -32.51259 | -59.99252 | 36046 ft | 377 kts | 320° |
| 2026-04-25 04:57 | -32.46792 | -60.02406 | 36047 ft | 376 kts | 320° |
| 2026-04-25 04:57 | -32.43777 | -60.04530 | 36044 ft | 376 kts | 320° |
| 2026-04-25 04:58 | -32.37792 | -60.08742 | 36048 ft | 376 kts | 320° |
| 2026-04-25 04:58 | -32.33293 | -60.11900 | 36051 ft | 375 kts | 320° |
| 2026-04-25 04:59 | -32.28797 | -60.15048 | 36047 ft | 375 kts | 319° |
| 2026-04-25 04:59 | -32.24339 | -60.18170 | 36050 ft | 374 kts | 319° |
| 2026-04-25 05:00 | -32.19857 | -60.21309 | 36051 ft | 374 kts | 319° |
| 2026-04-25 05:00 | -32.15386 | -60.24435 | 36048 ft | 373 kts | 319° |
| 2026-04-25 05:01 | -32.10917 | -60.27556 | 36054 ft | 373 kts | 319° |
| 2026-04-25 05:01 | -32.06453 | -60.30667 | 36051 ft | 372 kts | 319° |
| 2026-04-25 05:02 | -32.01995 | -60.33762 | 36053 ft | 372 kts | 319° |
| 2026-04-25 05:02 | -31.97542 | -60.36858 | 36055 ft | 371 kts | 319° |
| 2026-04-25 05:03 | -31.93124 | -60.39936 | 36061 ft | 371 kts | 319° |
| 2026-04-25 05:03 | -31.88674 | -60.43032 | 36063 ft | 370 kts | 319° |
| 2026-04-25 05:04 | -31.84233 | -60.46110 | 36062 ft | 370 kts | 319° |
| 2026-04-25 05:04 | -31.79833 | -60.49169 | 36051 ft | 368 kts | 318° |
| 2026-04-25 05:05 | -31.75542 | -60.52401 | 36059 ft | 365 kts | 316° |
| 2026-04-25 05:05 | -31.71296 | -60.55703 | 36071 ft | 365 kts | 316° |
| 2026-04-25 05:06 | -31.67052 | -60.58972 | 36065 ft | 365 kts | 316° |
| 2026-04-25 05:06 | -31.62791 | -60.62221 | 36063 ft | 365 kts | 316° |
| 2026-04-25 05:07 | -31.58527 | -60.65454 | 36063 ft | 365 kts | 316° |
| 2026-04-25 05:07 | -31.54265 | -60.68685 | 36063 ft | 364 kts | 316° |
| 2026-04-25 05:08 | -31.50004 | -60.71923 | 36041 ft | 364 kts | 316° |
| 2026-04-25 05:08 | -31.45777 | -60.75129 | 36046 ft | 364 kts | 316° |
| 2026-04-25 05:09 | -31.41522 | -60.78347 | 36046 ft | 364 kts | 316° |
| 2026-04-25 05:09 | -31.37268 | -60.81557 | 36051 ft | 364 kts | 316° |
| 2026-04-25 05:10 | -31.33729 | -60.84227 | 36048 ft | 363 kts | 316° |
| 2026-04-25 05:10 | -31.29480 | -60.87430 | 36048 ft | 363 kts | 316° |
| 2026-04-25 05:11 | -31.25223 | -60.90636 | 36050 ft | 363 kts | 316° |
| 2026-04-25 05:11 | -31.20981 | -60.93833 | 36053 ft | 363 kts | 316° |
| 2026-04-25 05:12 | -31.14643 | -60.98602 | 36049 ft | 363 kts | 316° |
| 2026-04-25 05:12 | -31.10394 | -61.01793 | 36046 ft | 363 kts | 316° |
| 2026-04-25 05:13 | -31.06146 | -61.04971 | 36046 ft | 363 kts | 316° |
| 2026-04-25 05:13 | -31.01894 | -61.08149 | 36045 ft | 363 kts | 316° |
| 2026-04-25 05:14 | -30.97670 | -61.11310 | 36041 ft | 363 kts | 316° |
| 2026-04-25 05:15 | -30.91290 | -61.16073 | 36040 ft | 363 kts | 316° |
| 2026-04-25 05:15 | -30.87031 | -61.19244 | 36042 ft | 363 kts | 316° |
| 2026-04-25 05:16 | -30.82793 | -61.22392 | 36040 ft | 363 kts | 316° |
| 2026-04-25 05:16 | -30.78529 | -61.25562 | 36044 ft | 364 kts | 316° |
| 2026-04-25 05:17 | -30.74263 | -61.28729 | 36044 ft | 364 kts | 316° |
| 2026-04-25 05:17 | -30.69989 | -61.31908 | 36040 ft | 364 kts | 316° |
| 2026-04-25 05:18 | -30.65737 | -61.35057 | 36039 ft | 364 kts | 316° |
| 2026-04-25 05:18 | -30.61457 | -61.38221 | 36041 ft | 365 kts | 316° |
| 2026-04-25 05:19 | -30.57168 | -61.41386 | 36043 ft | 365 kts | 316° |
| 2026-04-25 05:19 | -30.52877 | -61.44548 | 36045 ft | 365 kts | 316° |
| 2026-04-25 05:20 | -30.48589 | -61.47718 | 36042 ft | 365 kts | 316° |
| 2026-04-25 05:20 | -30.44300 | -61.50885 | 36046 ft | 366 kts | 316° |
| 2026-04-25 05:21 | -30.40004 | -61.54051 | 36044 ft | 366 kts | 316° |
| 2026-04-25 05:21 | -30.35702 | -61.57208 | 36046 ft | 366 kts | 316° |
| 2026-04-25 05:22 | -30.31421 | -61.60351 | 36045 ft | 366 kts | 316° |
| 2026-04-25 05:22 | -30.27108 | -61.63515 | 36048 ft | 367 kts | 316° |
| 2026-04-25 05:23 | -30.22797 | -61.66677 | 36045 ft | 367 kts | 316° |
| 2026-04-25 05:23 | -30.18469 | -61.69839 | 36045 ft | 367 kts | 316° |
| 2026-04-25 05:24 | -30.14171 | -61.72973 | 36054 ft | 368 kts | 316° |
| 2026-04-25 05:24 | -30.09836 | -61.76142 | 36045 ft | 368 kts | 316° |
| 2026-04-25 05:25 | -30.05505 | -61.79303 | 36045 ft | 368 kts | 316° |
| 2026-04-25 05:25 | -30.01167 | -61.82461 | 36046 ft | 369 kts | 316° |
| 2026-04-25 05:26 | -29.96822 | -61.85628 | 36039 ft | 369 kts | 316° |
| 2026-04-25 05:26 | -29.92470 | -61.88792 | 36042 ft | 370 kts | 316° |
| 2026-04-25 05:27 | -29.88140 | -61.91943 | 36042 ft | 369 kts | 315° |
| 2026-04-25 05:27 | -29.86178 | -61.93771 | 36041 ft | 358 kts | 307° |
| 2026-04-25 05:27 | -29.84370 | -61.95754 | 36043 ft | 358 kts | 307° |
| 2026-04-25 05:28 | -29.80764 | -61.99717 | 36042 ft | 359 kts | 307° |
| 2026-04-25 05:28 | -29.77160 | -62.03663 | 36046 ft | 359 kts | 308° |
| 2026-04-25 05:29 | -29.73527 | -62.07622 | 36048 ft | 360 kts | 308° |
| 2026-04-25 05:29 | -29.69895 | -62.11587 | 36045 ft | 360 kts | 308° |
| 2026-04-25 05:30 | -29.66259 | -62.15560 | 36038 ft | 361 kts | 308° |
| 2026-04-25 05:30 | -29.62638 | -62.19504 | 36055 ft | 361 kts | 308° |
| 2026-04-25 05:31 | -29.58988 | -62.23477 | 36055 ft | 361 kts | 308° |
| 2026-04-25 05:31 | -29.55327 | -62.27449 | 36054 ft | 362 kts | 308° |
| 2026-04-25 05:32 | -29.51670 | -62.31420 | 36056 ft | 362 kts | 308° |
| 2026-04-25 05:32 | -29.48025 | -62.35381 | 36066 ft | 362 kts | 308° |
| 2026-04-25 05:33 | -29.44362 | -62.39352 | 36065 ft | 363 kts | 308° |
| 2026-04-25 05:33 | -29.40686 | -62.43326 | 36064 ft | 363 kts | 308° |
| 2026-04-25 05:34 | -29.37003 | -62.47303 | 36060 ft | 363 kts | 308° |
| 2026-04-25 05:34 | -29.33324 | -62.51282 | 36063 ft | 363 kts | 308° |
| 2026-04-25 05:35 | -29.29634 | -62.55263 | 36059 ft | 364 kts | 308° |
| 2026-04-25 05:35 | -29.25967 | -62.59215 | 36058 ft | 364 kts | 308° |
| 2026-04-25 05:36 | -29.22269 | -62.63193 | 36057 ft | 365 kts | 308° |
| 2026-04-25 05:36 | -29.18562 | -62.67181 | 36057 ft | 365 kts | 308° |
| 2026-04-25 05:37 | -29.14874 | -62.71143 | 36057 ft | 365 kts | 308° |
| 2026-04-25 05:37 | -29.11160 | -62.75126 | 36057 ft | 366 kts | 308° |
| 2026-04-25 05:38 | -29.07442 | -62.79115 | 36056 ft | 366 kts | 309° |
| 2026-04-25 05:38 | -29.03716 | -62.83099 | 36056 ft | 367 kts | 309° |
| 2026-04-25 05:39 | -29.00018 | -62.87057 | 36055 ft | 367 kts | 309° |
| 2026-04-25 05:39 | -28.96284 | -62.91045 | 36056 ft | 367 kts | 309° |
| 2026-04-25 05:40 | -28.92541 | -62.95039 | 36059 ft | 368 kts | 309° |
| 2026-04-25 05:40 | -28.88813 | -62.99012 | 36058 ft | 368 kts | 309° |
| 2026-04-25 05:41 | -28.85067 | -63.03005 | 36061 ft | 368 kts | 309° |
| 2026-04-25 05:41 | -28.81313 | -63.07002 | 36060 ft | 369 kts | 309° |
| 2026-04-25 05:42 | -28.77592 | -63.10968 | 36057 ft | 369 kts | 309° |
| 2026-04-25 05:42 | -28.73832 | -63.14961 | 36054 ft | 369 kts | 309° |
| 2026-04-25 05:43 | -28.70063 | -63.18949 | 36055 ft | 370 kts | 309° |
| 2026-04-25 05:43 | -28.66300 | -63.22939 | 36055 ft | 370 kts | 309° |
| 2026-04-25 05:44 | -28.62525 | -63.26932 | 36058 ft | 370 kts | 309° |
| 2026-04-25 05:44 | -28.58748 | -63.30924 | 36061 ft | 371 kts | 309° |
| 2026-04-25 05:45 | -28.54988 | -63.34895 | 36066 ft | 371 kts | 309° |
| 2026-04-25 05:45 | -28.51284 | -63.38801 | 36058 ft | 371 kts | 309° |
| 2026-04-25 05:46 | -28.47498 | -63.42795 | 36057 ft | 371 kts | 309° |
| 2026-04-25 05:46 | -28.43707 | -63.46795 | 36050 ft | 372 kts | 309° |
| 2026-04-25 05:47 | -28.39915 | -63.50790 | 36048 ft | 372 kts | 309° |
| 2026-04-25 05:47 | -28.36110 | -63.54781 | 36051 ft | 373 kts | 310° |
| 2026-04-25 05:48 | -28.32297 | -63.58772 | 36050 ft | 373 kts | 310° |
| 2026-04-25 05:48 | -28.28513 | -63.62745 | 36047 ft | 373 kts | 310° |
| 2026-04-25 05:49 | -28.24696 | -63.66750 | 36048 ft | 374 kts | 309° |
| 2026-04-25 05:49 | -28.20872 | -63.70751 | 36043 ft | 375 kts | 309° |
| 2026-04-25 05:50 | -28.17030 | -63.74767 | 36037 ft | 376 kts | 310° |
| 2026-04-25 05:50 | -28.13174 | -63.78791 | 36036 ft | 377 kts | 310° |
| 2026-04-25 05:51 | -28.09309 | -63.82821 | 35879 ft | 379 kts | 310° |
| 2026-04-25 05:51 | -28.07365 | -63.84845 | 35379 ft | 381 kts | 310° |
| 2026-04-25 05:51 | -28.05403 | -63.86896 | 34550 ft | 387 kts | 310° |
| 2026-04-25 05:51 | -28.03420 | -63.88976 | 33642 ft | 393 kts | 310° |
| 2026-04-25 05:52 | -28.01398 | -63.91102 | 32657 ft | 399 kts | 310° |
| 2026-04-25 05:52 | -27.99347 | -63.93251 | 31749 ft | 404 kts | 310° |
| 2026-04-25 05:52 | -27.97291 | -63.95398 | 31241 ft | 399 kts | 310° |
| 2026-04-25 05:52 | -27.95261 | -63.97510 | 30657 ft | 396 kts | 310° |
| 2026-04-25 05:53 | -27.93263 | -63.99589 | 30075 ft | 393 kts | 309° |
| 2026-04-25 05:53 | -27.91234 | -64.01704 | 29420 ft | 390 kts | 310° |
| 2026-04-25 05:53 | -27.89281 | -64.03741 | 28857 ft | 385 kts | 310° |
| 2026-04-25 05:53 | -27.87322 | -64.05785 | 28295 ft | 381 kts | 310° |
| 2026-04-25 05:54 | -27.85389 | -64.07804 | 27740 ft | 377 kts | 310° |
| 2026-04-25 05:54 | -27.83465 | -64.09809 | 27185 ft | 374 kts | 310° |
| 2026-04-25 05:54 | -27.79674 | -64.13758 | 26115 ft | 367 kts | 310° |
| 2026-04-25 05:55 | -27.77805 | -64.15703 | 25608 ft | 364 kts | 310° |
| 2026-04-25 05:55 | -27.75948 | -64.17636 | 25112 ft | 362 kts | 310° |
| 2026-04-25 05:55 | -27.74104 | -64.19556 | 24629 ft | 359 kts | 311° |
| 2026-04-25 05:55 | -27.72274 | -64.21456 | 24165 ft | 357 kts | 311° |
| 2026-04-25 05:56 | -27.70449 | -64.23350 | 23710 ft | 355 kts | 311° |
| 2026-04-25 05:56 | -27.68631 | -64.25236 | 23206 ft | 353 kts | 311° |
| 2026-04-25 05:56 | -27.66835 | -64.27096 | 22761 ft | 349 kts | 311° |
| 2026-04-25 05:56 | -27.65059 | -64.28936 | 22327 ft | 345 kts | 312° |
| 2026-04-25 05:57 | -27.63302 | -64.30756 | 21886 ft | 341 kts | 312° |
| 2026-04-25 05:57 | -27.61563 | -64.32557 | 21451 ft | 337 kts | 312° |
| 2026-04-25 05:57 | -27.59840 | -64.34342 | 21015 ft | 334 kts | 312° |
| 2026-04-25 05:57 | -27.58137 | -64.36107 | 20566 ft | 332 kts | 312° |
| 2026-04-25 05:58 | -27.56440 | -64.37862 | 20119 ft | 330 kts | 313° |
| 2026-04-25 05:58 | -27.54772 | -64.39587 | 19669 ft | 329 kts | 313° |
| 2026-04-25 05:58 | -27.53084 | -64.41331 | 19206 ft | 329 kts | 313° |
| 2026-04-25 05:58 | -27.51400 | -64.43071 | 18749 ft | 329 kts | 313° |
| 2026-04-25 05:59 | -27.49713 | -64.44815 | 18272 ft | 329 kts | 314° |
| 2026-04-25 05:59 | -27.48027 | -64.46556 | 17761 ft | 329 kts | 314° |
| 2026-04-25 05:59 | -27.46336 | -64.48302 | 17295 ft | 328 kts | 314° |
| 2026-04-25 05:59 | -27.44661 | -64.50032 | 16828 ft | 327 kts | 314° |
| 2026-04-25 06:00 | -27.42983 | -64.51763 | 16364 ft | 326 kts | 315° |
| 2026-04-25 06:00 | -27.41309 | -64.53487 | 15899 ft | 326 kts | 315° |
| 2026-04-25 06:00 | -27.39635 | -64.55211 | 15434 ft | 326 kts | 315° |
| 2026-04-25 06:00 | -27.37964 | -64.56932 | 14981 ft | 326 kts | 315° |
| 2026-04-25 06:01 | -27.36397 | -64.58766 | 14512 ft | 325 kts | 306° |
| 2026-04-25 06:01 | -27.35571 | -64.60162 | 14202 ft | 324 kts | 298° |
| 2026-04-25 06:01 | -27.34508 | -64.63303 | 13692 ft | 329 kts | 282° |
| 2026-04-25 06:01 | -27.34232 | -64.65881 | 13336 ft | 335 kts | 274° |
| 2026-04-25 06:02 | -27.34079 | -64.68503 | 12984 ft | 336 kts | 274° |
| 2026-04-25 06:02 | -27.33919 | -64.71118 | 12627 ft | 336 kts | 274° |
| 2026-04-25 06:02 | -27.33756 | -64.73740 | 12274 ft | 335 kts | 274° |
| 2026-04-25 06:02 | -27.33595 | -64.76349 | 11923 ft | 334 kts | 274° |
| 2026-04-25 06:03 | -27.33486 | -64.78109 | 11677 ft | 334 kts | 274° |
| 2026-04-25 06:03 | -27.33326 | -64.80678 | 11337 ft | 333 kts | 274° |
| 2026-04-25 06:03 | -27.33162 | -64.83270 | 10980 ft | 332 kts | 274° |
| 2026-04-25 06:03 | -27.32998 | -64.85867 | 10630 ft | 331 kts | 274° |
| 2026-04-25 06:04 | -27.32833 | -64.88437 | 10384 ft | 325 kts | 274° |
| 2026-04-25 06:04 | -27.32675 | -64.90917 | 10264 ft | 314 kts | 274° |
| 2026-04-25 06:04 | -27.32514 | -64.93321 | 10133 ft | 304 kts | 276° |
| 2026-04-25 06:04 | -27.31989 | -64.95591 | 9968 ft | 297 kts | 293° |
| 2026-04-25 06:05 | -27.30948 | -64.97589 | 9617 ft | 298 kts | 308° |
| 2026-04-25 06:05 | -27.29665 | -64.99428 | 9236 ft | 298 kts | 308° |
| 2026-04-25 06:05 | -27.28392 | -65.01258 | 8914 ft | 296 kts | 308° |
| 2026-04-25 06:05 | -27.27127 | -65.03084 | 8561 ft | 295 kts | 307° |
| 2026-04-25 06:06 | -27.25879 | -65.04892 | 8222 ft | 293 kts | 307° |
| 2026-04-25 06:06 | -27.24631 | -65.06700 | 7926 ft | 291 kts | 307° |
| 2026-04-25 06:06 | -27.23402 | -65.08480 | 7492 ft | 286 kts | 307° |
| 2026-04-25 06:06 | -27.22205 | -65.10214 | 6998 ft | 282 kts | 307° |
| 2026-04-25 06:07 | -27.21011 | -65.11943 | 6610 ft | 278 kts | 307° |
| 2026-04-25 06:07 | -27.19830 | -65.13654 | 6227 ft | 276 kts | 307° |
| 2026-04-25 06:07 | -27.18495 | -65.15179 | 5866 ft | 274 kts | 324° |
| 2026-04-25 06:07 | -27.16794 | -65.16124 | 5526 ft | 275 kts | 344° |
| 2026-04-25 06:08 | -27.14904 | -65.16370 | 5223 ft | 274 kts | 4° |
| 2026-04-25 06:08 | -27.13027 | -65.16054 | 4911 ft | 272 kts | 9° |
| 2026-04-25 06:08 | -27.11170 | -65.15695 | 4694 ft | 267 kts | 9° |
| 2026-04-25 06:08 | -27.09385 | -65.15349 | 4606 ft | 252 kts | 9° |
| 2026-04-25 06:09 | -27.07717 | -65.15027 | 4511 ft | 237 kts | 9° |
| 2026-04-25 06:09 | -27.06133 | -65.14721 | 4392 ft | 223 kts | 9° |
| 2026-04-25 06:09 | -27.04663 | -65.14437 | 4313 ft | 207 kts | 9° |
| 2026-04-25 06:09 | -27.03300 | -65.14175 | 4237 ft | 190 kts | 9° |
| 2026-04-25 06:10 | -27.02041 | -65.13936 | 4153 ft | 177 kts | 9° |
| 2026-04-25 06:10 | -27.00870 | -65.13712 | 4108 ft | 163 kts | 9° |
| 2026-04-25 06:10 | -26.99790 | -65.13505 | 4119 ft | 153 kts | 9° |
| 2026-04-25 06:10 | -26.98754 | -65.13305 | 4099 ft | 150 kts | 9° |
| 2026-04-25 06:11 | -26.97742 | -65.13111 | 3890 ft | 148 kts | 9° |
| 2026-04-25 06:11 | -26.96729 | -65.12916 | 3697 ft | 147 kts | 9° |
| 2026-04-25 06:11 | -26.95720 | -65.12722 | 3512 ft | 147 kts | 10° |
| 2026-04-25 06:11 | -26.94715 | -65.12528 | 3318 ft | 146 kts | 10° |
| 2026-04-25 06:12 | -26.93716 | -65.12336 | 3122 ft | 145 kts | 10° |
| 2026-04-25 06:12 | -26.92720 | -65.12144 | 2929 ft | 145 kts | 10° |
| 2026-04-25 06:12 | -26.91731 | -65.11954 | 2743 ft | 144 kts | 10° |
| 2026-04-25 06:12 | -26.90751 | -65.11765 | 2551 ft | 143 kts | 10° |
| 2026-04-25 06:13 | -26.89773 | -65.11577 | 2358 ft | 142 kts | 10° |
| 2026-04-25 06:13 | -26.88799 | -65.11396 | 2165 ft | 142 kts | 8° |
| 2026-04-25 06:13 | -26.87825 | -65.11225 | 1967 ft | 141 kts | 10° |
| 2026-04-25 06:14 | -26.85907 | -65.10842 | 1605 ft | 139 kts | 11° |
| 2026-04-25 06:14 | -26.84956 | -65.10652 | 1495 ft | 133 kts | 10° |
| 2026-04-25 06:14 | -26.84209 | -65.10507 | 1482 ft | 84 kts | 10° |
| 2026-04-25 06:14 | -26.83835 | -65.10435 | 1485 ft | 31 kts | 7° |
| 2026-04-25 06:15 | -26.83617 | -65.10391 | 1491 ft | 33 kts | 11° |
| 2026-04-25 06:15 | -26.83403 | -65.10421 | 1493 ft | 25 kts | 345° |
| 2026-04-25 06:15 | -26.83326 | -65.10474 | 1489 ft | 12 kts | 299° |
| 2026-04-25 06:15 | -26.83353 | -65.10568 | 1492 ft | 15 kts | 223° |
| 2026-04-25 06:16 | -26.83431 | -65.10642 | 1492 ft | 14 kts | 220° |
| 2026-04-25 06:16 | -26.83501 | -65.10688 | 1490 ft | 12 kts | 193° |
| 2026-04-25 06:16 | -26.83533 | -65.10696 | 1485 ft | 2 kts | 204° |
| 2026-04-25 06:16 | -26.83535 | -65.10707 | 1481 ft | 2 kts | 264° |
| 2026-04-25 06:17 | -26.83531 | -65.10729 | 1489 ft | 4 kts | 278° |
| 2026-04-25 06:17 | -26.83529 | -65.10749 | 1488 ft | 3 kts | 280° |
| 2026-04-25 06:17 | -26.83528 | -65.10753 | 1492 ft | 0 kts | 281° |